createdAt,value
2022-11-16T00:00:36.792Z,98471.81
2022-11-16T00:03:04.689Z,98472.53
2022-11-16T00:05:31.540Z,98473.63
2022-11-16T00:07:58.435Z,98478.38
2022-11-16T00:10:25.174Z,98482.19
2022-11-16T00:12:52.691Z,98478.94
2022-11-16T00:15:20.825Z,98476.47
2022-11-16T00:17:47.705Z,98475.06
2022-11-16T00:20:14.877Z,98472.13
2022-11-16T00:22:41.697Z,98478.94
2022-11-16T00:25:09.044Z,98474.22
2022-11-16T00:27:35.864Z,98482.22
2022-11-16T00:30:04.362Z,98487.41
2022-11-16T00:32:32.474Z,98488.53
2022-11-16T00:34:59.676Z,98495.13
2022-11-16T00:37:26.464Z,98500.69
2022-11-16T00:39:53.252Z,98504.84
2022-11-16T00:42:20.005Z,98493.72
2022-11-16T00:44:46.988Z,98498.31
2022-11-16T00:47:13.866Z,98497.22
2022-11-16T00:49:42.636Z,98502.31
2022-11-16T00:52:09.442Z,98494.72
2022-11-16T00:54:36.721Z,98497.66
2022-11-16T00:57:04.184Z,98487.88
2022-11-16T00:59:31.454Z,98472.84
2022-11-16T01:01:58.794Z,98465.38
2022-11-16T01:04:25.754Z,98474.97
2022-11-16T01:06:54.001Z,98481.03
2022-11-16T01:09:24.230Z,98483.72
2022-11-16T01:11:51.144Z,98474.09
2022-11-16T01:14:18.133Z,98475.13
2022-11-16T01:16:48.575Z,98464.81
2022-11-16T01:19:16.260Z,98465.88
2022-11-16T01:21:43.061Z,98456.06
2022-11-16T01:24:11.445Z,98455.72
2022-11-16T01:26:38.636Z,98444.91
2022-11-16T01:29:06.367Z,98438.28
2022-11-16T01:31:38.283Z,98440.97
2022-11-16T01:34:05.649Z,98441.81
2022-11-16T01:36:32.438Z,98441.47
2022-11-16T01:39:01.345Z,98444.28
2022-11-16T01:41:37.715Z,98449.19
2022-11-16T01:44:45.307Z,98452.63
2022-11-16T01:47:17.382Z,98446.66
2022-11-16T01:49:51.816Z,98441.31
2022-11-16T01:52:29.134Z,98438.63
2022-11-16T01:54:56.906Z,98429.69
2022-11-16T01:57:35.894Z,98426.19
2022-11-16T02:00:12.053Z,98418.25
2022-11-16T02:02:49.650Z,98422.41
2022-11-16T02:06:04.816Z,98422.25
2022-11-16T02:08:55.986Z,98418.13
2022-11-16T02:11:54.591Z,98411.59
2022-11-16T02:14:49.035Z,98412.81
2022-11-16T02:17:36.253Z,98405.06
2022-11-16T02:20:39.733Z,98398.72
2022-11-16T02:23:57.475Z,98398.19
2022-11-16T02:26:47.715Z,98402.84
2022-11-16T02:29:28.353Z,98406.03
2022-11-16T02:32:09.372Z,98396.72
2022-11-16T02:34:44.104Z,98404.25
2022-11-16T02:37:19.235Z,98404.41
2022-11-16T02:39:54.150Z,98403.75
2022-11-16T02:42:30.832Z,98409.50
2022-11-16T02:45:02.880Z,98411.44
2022-11-16T02:47:34.807Z,98415.28
2022-11-16T02:50:11.304Z,98412.44
2022-11-16T02:52:39.120Z,98415.63
2022-11-16T02:55:09.446Z,98417.00
2022-11-16T02:57:53.436Z,98417.59
2022-11-16T03:00:25.172Z,98417.34
2022-11-16T03:03:09.883Z,98410.81
2022-11-16T03:05:44.884Z,98412.81
2022-11-16T03:08:22.421Z,98415.34
2022-11-16T03:10:55.626Z,98413.47
2022-11-16T03:13:27.891Z,98408.81
2022-11-16T03:15:57.860Z,98412.56
2022-11-16T03:18:28.173Z,98411.50
2022-11-16T03:21:12.526Z,98408.88
2022-11-16T03:23:39.809Z,98400.41
2022-11-16T03:26:13.767Z,98397.59
2022-11-16T03:28:55.459Z,98396.56
2022-11-16T03:31:33.212Z,98401.38
2022-11-16T03:34:09.740Z,98405.31
2022-11-16T03:36:43.157Z,98404.66
2022-11-16T03:39:19.484Z,98410.22
2022-11-16T03:41:50.474Z,98414.47
2022-11-16T03:44:21.392Z,98413.75
2022-11-16T03:46:50.089Z,98413.66
2022-11-16T03:49:21.460Z,98413.81
2022-11-16T03:51:49.973Z,98416.13
2022-11-16T03:54:17.499Z,98409.72
2022-11-16T03:56:44.691Z,98406.28
2022-11-16T03:59:13.052Z,98401.72
2022-11-16T04:01:44.505Z,98404.09
2022-11-16T04:04:14.172Z,98414.81
2022-11-16T04:06:41.016Z,98424.94
2022-11-16T04:09:09.252Z,98436.66
2022-11-16T04:11:38.430Z,98436.75
2022-11-16T04:14:09.130Z,98430.00
2022-11-16T04:16:39.315Z,98426.22
2022-11-16T04:19:08.757Z,98421.16
2022-11-16T04:21:42.404Z,98414.13
2022-11-16T04:24:14.781Z,98414.19
2022-11-16T04:26:48.406Z,98407.44
2022-11-16T04:29:15.445Z,98416.88
2022-11-16T04:31:42.492Z,98426.25
2022-11-16T04:34:11.752Z,98441.00
2022-11-16T04:36:46.064Z,98440.75
2022-11-16T04:39:13.520Z,98440.00
2022-11-16T04:41:40.750Z,98437.06
2022-11-16T04:44:07.598Z,98431.34
2022-11-16T04:46:36.086Z,98425.19
2022-11-16T04:49:03.421Z,98431.19
2022-11-16T04:51:30.218Z,98424.38
2022-11-16T04:53:59.754Z,98429.88
2022-11-16T04:56:27.417Z,98432.63
2022-11-16T05:09:12.716Z,98423.38
2022-11-16T05:12:01.712Z,98418.81
2022-11-16T05:23:36.696Z,98428.88
2022-11-16T05:26:09.437Z,98433.94
2022-11-16T05:28:37.800Z,98435.75
2022-11-16T05:31:04.968Z,98426.97
2022-11-16T05:33:32.606Z,98429.03
2022-11-16T05:36:00.452Z,98437.53
2022-11-16T05:38:27.684Z,98432.81
2022-11-16T05:40:57.878Z,98430.16
2022-11-16T05:43:25.128Z,98441.06
2022-11-16T05:46:12.102Z,98443.25
2022-11-16T05:48:40.237Z,98444.38
2022-11-16T05:51:08.547Z,98436.03
2022-11-16T05:53:35.495Z,98451.41
2022-11-16T05:56:03.241Z,98445.47
2022-11-16T05:58:34.958Z,98443.16
2022-11-16T06:01:03.551Z,98445.38
2022-11-16T06:03:32.268Z,98451.38
2022-11-16T06:06:00.329Z,98448.03
2022-11-16T06:08:29.771Z,98447.06
2022-11-16T06:11:04.127Z,98448.19
2022-11-16T06:13:33.804Z,98456.69
2022-11-16T06:16:03.222Z,98461.78
2022-11-16T06:18:40.276Z,98466.13
2022-11-16T06:21:09.241Z,98462.28
2022-11-16T06:23:36.710Z,98468.50
2022-11-16T06:26:04.748Z,98464.72
2022-11-16T06:28:32.790Z,98466.56
2022-11-16T06:31:00.747Z,98474.53
2022-11-16T06:33:33.366Z,98474.69
2022-11-16T06:36:08.073Z,98477.41
2022-11-16T06:38:36.706Z,98481.88
2022-11-16T06:41:04.133Z,98484.69
2022-11-16T06:43:37.196Z,98482.06
2022-11-16T06:46:05.655Z,98492.66
2022-11-16T06:48:32.730Z,98488.41
2022-11-16T06:51:03.433Z,98484.50
2022-11-16T06:53:32.192Z,98486.22
2022-11-16T06:56:02.899Z,98485.38
2022-11-16T06:58:30.411Z,98494.53
2022-11-16T07:00:58.227Z,98494.13
2022-11-16T07:03:25.295Z,98493.38
2022-11-16T07:05:52.526Z,98497.66
2022-11-16T07:08:20.073Z,98506.78
2022-11-16T07:10:48.774Z,98508.94
2022-11-16T07:13:15.947Z,98521.00
2022-11-16T07:15:43.485Z,98514.59
2022-11-16T07:18:10.368Z,98522.53
2022-11-16T07:20:39.335Z,98527.91
2022-11-16T07:23:09.069Z,98526.53
2022-11-16T07:25:49.137Z,98532.84
2022-11-16T07:28:30.079Z,98523.50
2022-11-16T07:31:15.277Z,98540.91
2022-11-16T07:33:43.244Z,98542.53
2022-11-16T07:36:28.639Z,98547.28
2022-11-16T07:38:56.354Z,98553.03
2022-11-16T07:41:26.021Z,98553.13
2022-11-16T07:44:12.253Z,98547.75
2022-11-16T07:46:46.953Z,98554.00
2022-11-16T07:49:16.983Z,98555.47
2022-11-16T07:51:49.914Z,98557.63
2022-11-16T07:54:30.732Z,98560.06
2022-11-16T07:56:59.478Z,98557.59
2022-11-16T07:59:26.419Z,98553.28
2022-11-16T08:01:53.675Z,98558.50
2022-11-16T08:04:21.794Z,98560.72
2022-11-16T08:06:50.931Z,98568.59
2022-11-16T08:09:19.545Z,98557.00
2022-11-16T08:11:46.485Z,98564.56
2022-11-16T08:14:15.254Z,98559.75
2022-11-16T08:16:42.700Z,98561.13
2022-11-16T08:19:14.128Z,98567.59
2022-11-16T08:21:41.067Z,98567.53
2022-11-16T08:24:09.496Z,98575.09
2022-11-16T08:26:40.308Z,98578.88
2022-11-16T08:29:11.262Z,98579.00
2022-11-16T08:32:59.465Z,98576.84
2022-11-16T08:35:27.864Z,98565.47
2022-11-16T08:37:55.201Z,98560.13
2022-11-16T08:40:27.358Z,98569.94
2022-11-16T08:42:55.190Z,98569.75
2022-11-16T08:45:22.018Z,98570.38
2022-11-16T08:47:49.227Z,98574.78
2022-11-16T08:50:16.410Z,98572.91
2022-11-16T08:52:45.214Z,98583.53
2022-11-16T08:55:12.201Z,98578.13
2022-11-16T08:57:39.585Z,98577.88
2022-11-16T09:00:12.015Z,98576.88
2022-11-16T09:02:39.123Z,98589.06
2022-11-16T09:05:08.056Z,98585.56
2022-11-16T09:07:35.231Z,98581.25
2022-11-16T09:10:07.126Z,98580.69
2022-11-16T09:12:35.957Z,98590.81
2022-11-16T09:15:03.204Z,98588.50
2022-11-16T09:17:30.326Z,98588.44
2022-11-16T09:19:57.313Z,98583.00
2022-11-16T09:22:24.266Z,98582.66
2022-11-16T09:24:51.071Z,98582.25
2022-11-16T09:27:19.534Z,98577.94
2022-11-16T09:29:46.325Z,98584.94
2022-11-16T09:32:13.184Z,98589.00
2022-11-16T09:34:40.109Z,98579.75
2022-11-16T09:37:06.853Z,98585.69
2022-11-16T09:39:34.143Z,98585.25
2022-11-16T09:42:27.954Z,98585.75
2022-11-16T09:45:01.889Z,98585.44
2022-11-16T09:47:46.735Z,98576.22
2022-11-16T09:50:30.159Z,98582.38
2022-11-16T09:53:13.164Z,98570.19
2022-11-16T09:55:50.870Z,98572.56
2022-11-16T09:58:28.100Z,98575.69
2022-11-16T10:01:15.893Z,98575.78
2022-11-16T10:03:48.306Z,98571.84
2022-11-16T10:06:27.648Z,98574.53
2022-11-16T10:08:55.771Z,98574.13
2022-11-16T10:11:54.150Z,98570.69
2022-11-16T10:14:56.456Z,98572.56
2022-11-16T10:17:47.387Z,98582.88
2022-11-16T10:20:42.018Z,98582.34
2022-11-16T10:23:19.708Z,98583.56
2022-11-16T10:25:53.475Z,98570.63
2022-11-16T10:28:53.307Z,98576.03
2022-11-16T10:32:02.984Z,98571.84
2022-11-16T10:34:51.287Z,98572.06
2022-11-16T10:38:33.632Z,98566.75
2022-11-16T10:41:13.228Z,98560.78
2022-11-16T10:43:43.093Z,98565.16
2022-11-16T10:46:21.860Z,98566.00
2022-11-16T10:49:08.126Z,98566.59
2022-11-16T10:51:36.285Z,98562.78
2022-11-16T10:54:12.250Z,98564.66
2022-11-16T10:56:43.415Z,98563.53
2022-11-16T10:59:13.156Z,98554.84
2022-11-16T11:01:42.762Z,98558.13
2022-11-16T11:04:43.199Z,98547.97
2022-11-16T11:07:29.587Z,98537.16
2022-11-16T11:10:07.635Z,98538.69
2022-11-16T11:12:37.384Z,98536.13
2022-11-16T11:15:25.538Z,98538.34
2022-11-16T11:18:17.079Z,98528.13
2022-11-16T11:20:48.877Z,98520.28
2022-11-16T11:23:20.211Z,98518.22
2022-11-16T11:25:53.915Z,98520.44
2022-11-16T11:28:25.731Z,98530.84
2022-11-16T11:31:01.656Z,98527.44
2022-11-16T11:33:37.001Z,98525.09
2022-11-16T11:36:20.060Z,98534.81
2022-11-16T11:39:06.128Z,98519.22
2022-11-16T11:41:37.219Z,98530.50
2022-11-16T11:44:17.045Z,98530.06
2022-11-16T11:47:42.285Z,98522.56
2022-11-16T11:49:52.441Z,98516.38
2022-11-16T11:52:29.617Z,98518.34
2022-11-16T11:54:56.799Z,98518.53
2022-11-16T11:57:24.128Z,98510.94
2022-11-16T11:59:54.044Z,98516.03
2022-11-16T12:02:47.362Z,98516.66
2022-11-16T12:05:33.850Z,98511.72
2022-11-16T12:08:32.367Z,98506.47
2022-11-16T12:11:13.420Z,98492.56
2022-11-16T12:14:17.169Z,98496.97
2022-11-16T12:17:00.168Z,98496.41
2022-11-16T12:20:23.499Z,98490.44
2022-11-16T12:23:21.906Z,98482.41
2022-11-16T12:26:01.401Z,98493.28
2022-11-16T12:28:53.173Z,98488.56
2022-11-16T12:31:49.742Z,98477.75
2022-11-16T12:34:35.484Z,98477.69
2022-11-16T12:37:14.473Z,98475.00
2022-11-16T12:39:53.075Z,98481.59
2022-11-16T12:42:45.582Z,98475.31
2022-11-16T12:45:47.172Z,98481.13
2022-11-16T12:48:53.461Z,98475.38
2022-11-16T12:51:47.250Z,98471.72
2022-11-16T12:55:19.205Z,98468.41
2022-11-16T12:57:56.398Z,98470.34
2022-11-16T13:00:23.806Z,98468.88
2022-11-16T13:03:19.590Z,98467.88
2022-11-16T13:05:58.356Z,98470.03
2022-11-16T13:08:42.042Z,98467.63
2022-11-16T13:11:18.633Z,98467.72
2022-11-16T13:13:53.689Z,98461.94
2022-11-16T13:16:24.531Z,98467.06
2022-11-16T13:18:55.407Z,98468.06
2022-11-16T13:21:38.669Z,98465.31
2022-11-16T13:24:32.306Z,98462.22
2022-11-16T13:27:24.948Z,98454.88
2022-11-16T13:30:00.768Z,98454.56
2022-11-16T13:32:55.759Z,98450.47
2022-11-16T13:35:23.009Z,98450.25
2022-11-16T13:37:51.294Z,98446.19
2022-11-16T13:40:29.233Z,98450.56
2022-11-16T13:43:20.822Z,98449.53
2022-11-16T13:45:59.272Z,98448.63
2022-11-16T13:48:32.398Z,98440.13
2022-11-16T13:51:03.978Z,98436.94
2022-11-16T13:54:43.058Z,98436.94
2022-11-16T13:56:28.697Z,98430.19
2022-11-16T13:58:58.695Z,98435.31
2022-11-16T14:01:25.790Z,98432.47
2022-11-16T14:04:41.805Z,98435.44
2022-11-16T14:07:39.191Z,98425.47
2022-11-16T14:10:07.539Z,98420.75
2022-11-16T14:12:56.520Z,98409.38
2022-11-16T14:15:34.552Z,98414.91
2022-11-16T14:18:31.612Z,98417.19
2022-11-16T14:21:09.489Z,98406.59
2022-11-16T14:24:05.080Z,98401.53
2022-11-16T14:26:51.213Z,98405.94
2022-11-16T14:29:41.383Z,98404.09
2022-11-16T14:32:22.095Z,98397.06
2022-11-16T14:34:53.182Z,98393.03
2022-11-16T14:37:35.255Z,98391.16
2022-11-16T14:40:08.757Z,98394.22
2022-11-16T14:43:09.554Z,98384.22
2022-11-16T14:45:38.369Z,98383.72
2022-11-16T14:48:16.466Z,98383.22
2022-11-16T14:50:47.576Z,98389.75
2022-11-16T14:53:19.774Z,98380.22
2022-11-16T14:55:46.789Z,98385.66
2022-11-16T14:58:19.501Z,98379.69
2022-11-16T15:00:54.910Z,98376.44
2022-11-16T15:03:27.211Z,98380.78
2022-11-16T15:05:59.120Z,98381.06
2022-11-16T15:08:34.656Z,98380.78
2022-11-16T15:11:02.125Z,98382.69
2022-11-16T15:13:29.612Z,98388.28
2022-11-16T15:16:16.571Z,98385.25
2022-11-16T15:18:58.563Z,98391.22
2022-11-16T15:21:25.868Z,98380.06
2022-11-16T15:24:23.472Z,98382.78
2022-11-16T15:26:40.376Z,98382.19
2022-11-16T15:29:16.579Z,98381.59
2022-11-16T15:31:45.272Z,98372.38
2022-11-16T15:34:17.096Z,98388.09
2022-11-16T15:36:44.271Z,98378.28
2022-11-16T15:39:17.397Z,98380.47
2022-11-16T15:41:45.135Z,98366.91
2022-11-16T15:44:17.719Z,98369.63
2022-11-16T15:46:51.486Z,98361.41
2022-11-16T15:49:29.671Z,98366.50
2022-11-16T15:51:58.309Z,98367.38
2022-11-16T15:54:28.036Z,98362.72
2022-11-16T15:57:08.706Z,98352.31
2022-11-16T15:59:49.122Z,98352.53
2022-11-16T16:02:21.747Z,98362.84
2022-11-16T16:05:48.113Z,98360.06
2022-11-16T16:08:31.232Z,98353.75
2022-11-16T16:11:10.404Z,98353.06
2022-11-16T16:13:42.217Z,98347.16
2022-11-16T16:16:30.062Z,98354.28
2022-11-16T16:19:05.092Z,98350.22
2022-11-16T16:21:45.605Z,98356.50
2022-11-16T16:24:44.740Z,98352.31
2022-11-16T16:27:16.014Z,98352.91
2022-11-16T16:29:43.797Z,98343.22
2022-11-16T16:32:23.187Z,98353.38
2022-11-16T16:34:50.163Z,98356.34
2022-11-16T16:37:18.421Z,98341.94
2022-11-16T16:39:45.452Z,98334.00
2022-11-16T16:42:15.663Z,98341.28
2022-11-16T16:44:45.202Z,98338.16
2022-11-16T16:47:12.390Z,98337.44
2022-11-16T16:49:39.548Z,98336.84
2022-11-16T16:52:07.501Z,98344.31
2022-11-16T16:54:35.685Z,98338.28
2022-11-16T16:57:03.003Z,98346.41
2022-11-16T16:59:29.939Z,98338.34
2022-11-16T17:01:58.382Z,98328.63
2022-11-16T17:04:25.699Z,98327.34
2022-11-16T17:06:54.060Z,98322.22
2022-11-16T17:09:21.243Z,98314.94
2022-11-16T17:11:49.686Z,98323.38
2022-11-16T17:14:17.046Z,98324.22
2022-11-16T17:16:45.571Z,98319.69
2022-11-16T17:19:17.988Z,98323.25
2022-11-16T17:21:45.393Z,98325.72
2022-11-16T17:24:15.412Z,98323.56
2022-11-16T17:26:43.742Z,98322.28
2022-11-16T17:29:12.214Z,98314.09
2022-11-16T17:31:40.946Z,98317.25
2022-11-16T17:34:13.550Z,98309.97
2022-11-16T17:36:43.610Z,98311.31
2022-11-16T17:39:10.666Z,98308.03
2022-11-16T17:41:37.765Z,98312.22
2022-11-16T17:44:21.593Z,98298.06
2022-11-16T17:46:49.066Z,98302.47
2022-11-16T17:49:19.142Z,98305.31
2022-11-16T17:51:47.603Z,98304.34
2022-11-16T17:54:18.140Z,98303.09
2022-11-16T17:56:45.337Z,98299.09
2022-11-16T17:59:14.354Z,98296.91
2022-11-16T18:01:42.614Z,98292.88
2022-11-16T18:04:12.347Z,98284.81
2022-11-16T18:06:39.505Z,98285.59
2022-11-16T18:09:06.347Z,98288.38
2022-11-16T18:11:33.126Z,98286.75
2022-11-16T18:14:01.085Z,98284.69
2022-11-16T18:16:32.684Z,98282.75
2022-11-16T18:19:10.411Z,98283.88
2022-11-16T18:21:40.193Z,98275.81
2022-11-16T18:24:08.390Z,98278.56
2022-11-16T18:26:41.952Z,98266.31
2022-11-16T18:29:13.494Z,98267.44
2022-11-16T18:31:43.278Z,98259.06
2022-11-16T18:34:15.673Z,98258.91
2022-11-16T18:36:42.593Z,98254.31
2022-11-16T18:39:09.636Z,98254.84
2022-11-16T18:41:36.638Z,98251.63
2022-11-16T18:44:03.905Z,98240.28
2022-11-16T18:46:32.494Z,98229.25
2022-11-16T18:48:59.827Z,98223.06
2022-11-16T18:51:29.247Z,98220.56
2022-11-16T18:53:56.930Z,98222.72
2022-11-16T18:56:24.587Z,98212.72
2022-11-16T18:58:54.455Z,98225.16
2022-11-16T19:01:25.625Z,98223.47
2022-11-16T19:03:54.894Z,98221.53
2022-11-16T19:06:23.318Z,98213.56
2022-11-16T19:09:00.959Z,98214.59
2022-11-16T19:11:29.136Z,98208.91
2022-11-16T19:14:00.126Z,98199.13
2022-11-16T19:16:27.423Z,98203.50
2022-11-16T19:18:55.166Z,98202.59
2022-11-16T19:21:23.097Z,98214.16
2022-11-16T19:23:57.892Z,98210.88
2022-11-16T19:26:31.378Z,98213.25
2022-11-16T19:28:58.941Z,98197.25
2022-11-16T19:31:29.196Z,98209.66
2022-11-16T19:33:58.465Z,98204.84
2022-11-16T19:36:33.129Z,98204.59
2022-11-16T19:39:00.492Z,98198.09
2022-11-16T19:41:28.524Z,98199.69
2022-11-16T19:44:02.837Z,98201.06
2022-11-16T19:46:33.839Z,98205.88
2022-11-16T19:49:04.378Z,98203.50
2022-11-16T19:51:37.051Z,98205.25
2022-11-16T19:54:04.932Z,98213.16
2022-11-16T19:56:32.597Z,98216.72
2022-11-16T19:59:01.023Z,98216.22
2022-11-16T20:01:32.704Z,98216.47
2022-11-16T20:04:03.352Z,98225.16
2022-11-16T20:06:33.493Z,98218.13
2022-11-16T20:09:04.741Z,98225.97
2022-11-16T20:11:33.703Z,98229.47
2022-11-16T20:14:07.430Z,98233.84
2022-11-16T20:16:40.449Z,98230.31
2022-11-16T20:19:12.722Z,98216.97
2022-11-16T20:21:42.139Z,98213.88
2022-11-16T20:24:20.072Z,98198.53
2022-11-16T20:26:53.201Z,98178.88
2022-11-16T20:29:34.539Z,98185.16
2022-11-16T20:32:01.330Z,98183.00
2022-11-16T20:34:33.740Z,98176.16
2022-11-16T20:37:03.504Z,98178.50
2022-11-16T20:39:33.566Z,98169.03
2022-11-16T20:42:01.724Z,98170.47
2022-11-16T20:44:30.273Z,98178.31
2022-11-16T20:46:57.378Z,98175.63
2022-11-16T20:49:24.183Z,98182.47
2022-11-16T20:51:51.281Z,98186.44
2022-11-16T20:54:18.182Z,98179.19
2022-11-16T20:56:45.410Z,98177.75
2022-11-16T20:59:12.248Z,98175.38
2022-11-16T21:01:47.226Z,98163.31
2022-11-16T21:04:15.351Z,98166.31
2022-11-16T21:06:48.906Z,98177.22
2022-11-16T21:09:16.690Z,98162.72
2022-11-16T21:11:59.707Z,98162.13
2022-11-16T21:14:37.754Z,98150.75
2022-11-16T21:17:08.632Z,98151.84
2022-11-16T21:19:59.518Z,98149.34
2022-11-16T21:22:32.840Z,98154.50
2022-11-16T21:24:59.754Z,98146.06
2022-11-16T21:27:26.778Z,98142.00
2022-11-16T21:29:53.907Z,98142.94
2022-11-16T21:32:22.083Z,98142.00
2022-11-16T21:34:48.933Z,98138.84
2022-11-16T21:37:16.046Z,98141.06
2022-11-16T21:39:42.864Z,98136.72
2022-11-16T21:42:10.065Z,98141.19
2022-11-16T21:44:36.890Z,98133.25
2022-11-16T21:47:04.044Z,98132.25
2022-11-16T21:49:32.549Z,98140.72
2022-11-16T21:51:59.710Z,98133.44
2022-11-16T21:54:26.682Z,98129.03
2022-11-16T21:56:53.838Z,98126.94
2022-11-16T21:59:20.935Z,98126.16
2022-11-16T22:01:48.256Z,98123.25
2022-11-16T22:04:15.343Z,98127.16
2022-11-16T22:06:43.818Z,98126.13
2022-11-16T22:09:10.737Z,98123.75
2022-11-16T22:11:37.701Z,98129.22
2022-11-16T22:14:04.731Z,98126.81
2022-11-16T22:16:31.800Z,98128.97
2022-11-16T22:18:58.821Z,98122.94
2022-11-16T22:21:26.144Z,98122.75
2022-11-16T22:23:54.325Z,98130.94
2022-11-16T22:26:21.341Z,98128.28
2022-11-16T22:28:48.764Z,98123.44
2022-11-16T22:31:15.702Z,98122.81
2022-11-16T22:33:42.762Z,98120.78
2022-11-16T22:36:10.578Z,98120.41
2022-11-16T22:38:38.125Z,98115.66
2022-11-16T22:41:06.436Z,98117.59
2022-11-16T22:43:34.126Z,98107.16
2022-11-16T22:46:04.047Z,98106.34
2022-11-16T22:48:32.899Z,98109.63
2022-11-16T22:51:06.332Z,98103.53
2022-11-16T22:53:34.463Z,98108.13
2022-11-16T22:56:09.047Z,98106.44
2022-11-16T22:58:37.123Z,98102.44
2022-11-16T23:01:05.576Z,98107.00
2022-11-16T23:03:33.364Z,98097.28
2022-11-16T23:06:00.947Z,98098.13
2022-11-16T23:08:28.307Z,98092.72
2022-11-16T23:11:00.833Z,98090.03
2022-11-16T23:13:29.206Z,98086.75
2022-11-16T23:15:55.946Z,98078.41
2022-11-16T23:18:23.071Z,98074.91
2022-11-16T23:20:49.990Z,98061.09
2022-11-16T23:23:18.526Z,98066.28
2022-11-16T23:25:45.317Z,98060.84
2022-11-16T23:28:16.662Z,98071.16
2022-11-16T23:30:45.227Z,98061.97
2022-11-16T23:33:12.245Z,98056.34
2022-11-16T23:35:39.099Z,98055.50
2022-11-16T23:38:07.608Z,98055.50
2022-11-16T23:40:37.069Z,98055.03
2022-11-16T23:43:05.076Z,98052.91
2022-11-16T23:45:31.970Z,98039.75
2022-11-16T23:48:01.054Z,98027.06
2022-11-16T23:50:27.831Z,98020.38
2022-11-16T23:52:55.100Z,98017.41
2022-11-16T23:55:21.926Z,98006.56
2022-11-16T23:57:49.016Z,98018.47
